Terminal Aerodrome Forecast
Issued by NWS Cleveland, OH

Home | Current Version | Previous Version | Graphics & Text | Print | Product List | Glossary Off
Versions: 1 2 3 4 5 6 7 8 9 10 11 12 13 14 15 16 17 18 19 20 21 22 23

000
FTUS41 KCLE 281700
TAFERI
TAF
KERI 281736Z 2818/2918 35014G22KT P6SM VCSH BKN015 OVC030
      TEMPO 2818/2820 5SM -SHRA SCT010 OVC020
     FM282000 34014G22KT P6SM VCSH SCT015 BKN030
     FM290100 32009KT P6SM BKN030
     FM291400 27007KT P6SM VCSH BKN030=

USA.gov is the U.S. government's official web portal to all federal, state and local government web resources and services.